Angel Albino Corzo International Airport
MMTG : now visible

Airfield :











YOU CAN JOIN US ON...

 
LOGIN :

Register | Disclaimer

   EN    FR    IT 

 









Legend :    VFR   Marginal VFR   IFR   Intensive IFR   Very Intensive IFR
Visi :
Ceiling :
>= 8 km
>= 3000ft
5 to 8 km
1000 to 3000 ft
1500m to 5 km
500 to 1000 ft
800 to 1500m
200 to 500 ft
< 800m
< 200 ft
Symbols :   Thunderstorms  Fog  Heavy snow  Heavy precipitations  Wind > 20 kt






- Airport Elevation : 1499 ft


MMTG - Angel Albino Corzo International

CURRENT METAR :
  • 190012Z 27008G18KT 7SM SCT020CB BKN070 BKN300 24/21 A2992 RMK 8/963 TSRA E05 CB PCPN W

EXPIRED METARs :
  • 182347Z 02021KT 4SM TSRA BKN020CB OVC070 28/20 A2992 RMK 8/96/ TS 1ST QUAD RA B44 VIS NE 1SM
  • 182245Z 31012KT 6SM TS SCT030CB SCT300 32/22 A2990 RMK 8/302 HZY TS B30 NE
  • 182140Z 29008KT 6SM SCT030TCU BKN300 33/21 A2991 RMK 8/208 HZY
  • 182042Z 00000KT 7SM SCT030TCU BKN300 32/20 A2994 RMK SLP105 57022 952 8/208 HZY
  • 181940Z 00000KT 6SM SCT030TCU BKN300 33/20 A2996 RMK 8/208 HZY

TAF TAF MMTG
Valid from the 18 at 18:00 until the 19 at 18:00 UTC


181725Z 1818/1918 06010KT P6SM SCT025
FM182100 34012KT P6SM BKN030 BKN080
FM190300 23005KT P6SM SCT025 SCT200
FM191200 00000KT 4SM HZ SCT025 SCT200
FM191500 06005KT 6SM HZ SCT025
MMFR FIR / North America



MET'MAP, your aeronautical weather chart ! - Copyright ORBIFLY December 2007 - Disclaimer

ORBIFLY MET'MAP TEAM :

Programming & Development : Alexandra Zaïnal
Original concept : Baudouin d'Aumeries
Technical & hardware support : Manuel Goepfert
Assistance : Marc-Olivier Méhu




SOURCES & CREDITS :

   NOAA       Earth
Advisory